Bean Station, Tennessee
Current Conditions -  °F | °C
As of 3:55 PM on Sunday 23 Nov 2014 (Local Time) from KMOR Reporting Station
Scattered Clouds Scattered Clouds  
Wind Chill: 55°   Ceiling: Unl
Heat Index: 55°   Visibility: 6mi
Dew Point: 52°   Wind: 9mph
Humidity: 88%   Direction: 110°ESE
Pressure: 29.74"   Gusts: NA
Location:  36.34°N, 83.28°W
Report Text: KMOR 232055Z AUTO 11008KT 6SM FEW021 SCT032 SCT039 13/11 A2974 RMK
Loading
Personal Weather Stations






























Interactive Weather Map New forecast layout! Learn more

10-Day Weather Forecast

Advertisements
Track Severe Weather on mobile